Overview Statistics Trail Chart Weather Telemetry Raw packets
 

This is the latest recevied weather packets stored in our database for station/object ED3YAB-7. If no packets are shown the sender has not sent any weather packets the latest 10 day(s).

<< 1 2 3 4 5 6 >>
Time Temp. Humidity Pressure Rain* Wind** Luminosity Snow
1778161354 35° C 18% 1017.1 hPa - - - -
1778160161 36.67° C 18% 1017.3 hPa - - - -
1778160154 36.67° C 18% 1017.3 hPa - - - -
1778158954 31.67° C 23% 1017.4 hPa - - - -
1778157761 25° C 31% 1017.6 hPa - - - -
1778157754 25° C 31% 1017.6 hPa - - - -
1778156562 25° C 32% 1017.5 hPa - - - -
1778156554 25° C 32% 1017.5 hPa - - - -
1778154162 23.33° C 34% 1017.7 hPa - - - -
1778154154 23.33° C 34% 1017.7 hPa - - - -
1778152950 22.22° C 36% 1018.1 hPa - - - -
1778152943 22.22° C 36% 1018.1 hPa - - - -
1778150543 21.11° C 40% 1018.5 hPa - - - -
1778146955 20° C 42% 1018.9 hPa - - - -
1778145766 19.44° C 44% 1019.1 hPa - - - -
1778144553 18.33° C 47% 1018.9 hPa - - - -
1778143361 18.33° C 49% 1018.9 hPa - - - -
1778143353 18.33° C 49% 1018.9 hPa - - - -
1778142161 17.22° C 51% 1019 hPa - - - -
1778142153 17.22° C 51% 1019 hPa - - - -
1778139761 16.11° C 51% 1019.4 hPa - - - -
1778139753 16.11° C 51% 1019.4 hPa - - - -
1778138553 14.44° C 54% 1019.4 hPa - - - -
1778136153 13.33° C 57% 1019.1 hPa - - - -
1778134953 12.78° C 58% 1018.9 hPa - - - -

* Rain since midnight (hover to see other rain measurements)
** Current wind speed in m/s (hover to see current wind gust speed)